Time;durP1;ratioP1;P1;durP2;ratioP2;P2;SDS_P1;SDS_P2;PMS_P1;PMS_P2;Temp;Humidity;BMP_temperature;BMP_pressure;BME280_temperature;BME280_humidity;BME280_pressure;Samples;Min_cycle;Max_cycle;Signal;HPM_P1;HPM_P2
2023/10/05 00:04:41;;;;;;;2.70;2.20;;;14.10;33.10;;;;;;10421246;28;20228;-74
2023/10/05 00:09:46;;;;;;;3.17;2.30;;;14.00;33.10;;;;;;10419503;28;20233;-75
2023/10/05 00:15:01;;;;;;;2.77;2.10;;;13.90;32.80;;;;;;10419658;28;20252;-74
2023/10/05 00:20:10;;;;;;;4.40;2.17;;;13.70;33.20;;;;;;10413715;28;20229;-75
2023/10/05 00:25:14;;;;;;;1.70;1.60;;;13.50;33.40;;;;;;10418954;28;20244;-75
2023/10/05 00:30:18;;;;;;;3.07;1.70;;;13.40;33.20;;;;;;10420409;28;20221;-75
2023/10/05 00:35:27;;;;;;;1.60;1.50;;;13.40;33.50;;;;;;10416680;28;20241;-74
2023/10/05 00:40:35;;;;;;;2.77;1.87;;;13.30;33.80;;;;;;10414940;28;20283;-74
2023/10/05 00:45:39;;;;;;;1.97;1.63;;;13.30;33.70;;;;;;10418476;28;20229;-74
2023/10/05 00:50:46;;;;;;;1.97;1.87;;;13.30;33.70;;;;;;10422387;28;20645;-75
2023/10/05 00:56:04;;;;;;;2.00;1.57;;;13.40;33.90;;;;;;10423255;28;20229;-74
2023/10/05 01:01:08;;;;;;;2.33;1.73;;;13.40;33.90;;;;;;10415634;28;20224;-72
2023/10/05 01:06:26;;;;;;;1.60;1.50;;;13.30;33.60;;;;;;10413242;28;20315;-73
2023/10/05 01:11:40;;;;;;;2.07;1.70;;;13.30;33.90;;;;;;10420153;28;20600;-72
2023/10/05 01:16:43;;;;;;;2.80;1.70;;;13.20;33.70;;;;;;10421035;28;20261;-73
2023/10/05 01:21:51;;;;;;;1.63;1.53;;;13.20;33.70;;;;;;10419644;28;20750;-72
2023/10/05 01:26:56;;;;;;;2.33;1.60;;;13.20;33.80;;;;;;10417463;28;20386;-72
2023/10/05 01:31:59;;;;;;;2.73;1.50;;;13.20;33.90;;;;;;10421891;28;20595;-72
2023/10/05 01:37:03;;;;;;;1.73;1.60;;;13.20;33.60;;;;;;10419275;28;20232;-72
2023/10/05 01:42:08;;;;;;;2.10;1.87;;;13.20;33.70;;;;;;10426628;28;20225;-72
2023/10/05 01:47:14;;;;;;;2.23;1.60;;;13.10;33.90;;;;;;10418574;28;20751;-72
2023/10/05 01:52:17;;;;;;;1.83;1.70;;;13.10;33.70;;;;;;10416883;28;20229;-72
2023/10/05 01:57:28;;;;;;;3.10;1.73;;;13.00;33.80;;;;;;10418116;28;20224;-72
2023/10/05 02:02:32;;;;;;;2.23;2.00;;;13.00;33.90;;;;;;10416792;28;20221;-72
2023/10/05 02:07:38;;;;;;;2.03;1.90;;;12.90;33.40;;;;;;10416182;28;20232;-72
2023/10/05 02:12:45;;;;;;;2.10;1.90;;;12.80;33.50;;;;;;10416961;28;20225;-72
2023/10/05 02:17:51;;;;;;;2.63;1.90;;;12.60;33.80;;;;;;10417855;28;20229;-72
2023/10/05 02:22:55;;;;;;;3.30;2.10;;;12.50;33.80;;;;;;10416253;28;20601;-72
2023/10/05 02:28:01;;;;;;;1.67;1.50;;;12.30;33.90;;;;;;10421237;28;20226;-71
2023/10/05 02:33:09;;;;;;;2.17;1.77;;;12.20;34.40;;;;;;10413164;28;20764;-72
2023/10/05 02:38:15;;;;;;;3.07;1.50;;;12.10;34.40;;;;;;10419988;28;20217;-72
2023/10/05 02:43:28;;;;;;;2.33;1.60;;;12.10;34.50;;;;;;10443418;22;20326;-75
2023/10/05 02:48:33;;;;;;;3.43;1.80;;;12.10;34.80;;;;;;10429626;28;20241;-78
2023/10/05 02:53:41;;;;;;;2.03;1.77;;;12.20;34.50;;;;;;10430016;28;20221;-78
2023/10/05 02:58:45;;;;;;;2.63;2.00;;;12.10;34.40;;;;;;10431170;28;20244;-78
2023/10/05 03:03:51;;;;;;;2.00;1.80;;;12.20;34.70;;;;;;10431198;28;20239;-78
2023/10/05 03:08:57;;;;;;;1.70;1.60;;;12.10;34.50;;;;;;10438386;28;20645;-79
2023/10/05 03:14:02;;;;;;;2.97;1.80;;;12.00;34.50;;;;;;10437698;28;20226;-78
2023/10/05 03:19:08;;;;;;;1.83;1.73;;;12.00;35.00;;;;;;10426360;28;20235;-78
2023/10/05 03:24:13;;;;;;;2.10;1.90;;;11.90;34.70;;;;;;10430560;28;20228;-78
2023/10/05 03:29:21;;;;;;;3.20;1.90;;;11.90;35.00;;;;;;10427437;28;20236;-78
2023/10/05 03:34:26;;;;;;;3.47;1.93;;;11.90;35.30;;;;;;10428179;28;20221;-75
2023/10/05 03:39:35;;;;;;;3.33;2.00;;;11.90;35.00;;;;;;10428050;28;20242;-76
2023/10/05 03:44:45;;;;;;;3.50;1.80;;;11.80;35.10;;;;;;10424472;28;20217;-76
2023/10/05 03:49:55;;;;;;;4.50;1.87;;;11.90;35.50;;;;;;10426824;28;20232;-75
2023/10/05 03:55:03;;;;;;;2.47;1.93;;;12.00;35.20;;;;;;10429435;28;20228;-74
2023/10/05 04:00:22;;;;;;;2.03;1.73;;;12.00;35.10;;;;;;10429979;28;20920;-75
2023/10/05 04:05:26;;;;;;;1.80;1.50;;;11.90;35.60;;;;;;10429920;28;20228;-74
2023/10/05 04:10:45;;;;;;;2.30;1.93;;;11.90;35.30;;;;;;10428256;28;20235;-78
2023/10/05 04:15:52;;;;;;;2.93;2.23;;;11.90;35.30;;;;;;10422317;28;20260;-75
2023/10/05 04:20:57;;;;;;;2.77;2.03;;;11.90;35.50;;;;;;10428857;28;20224;-75
2023/10/05 04:26:01;;;;;;;3.10;2.07;;;12.00;35.20;;;;;;10423326;28;20226;-74
2023/10/05 04:31:11;;;;;;;2.50;2.20;;;12.00;35.30;;;;;;10426440;28;20287;-74
2023/10/05 04:36:16;;;;;;;2.30;2.10;;;12.00;35.60;;;;;;10427366;28;20257;-74
2023/10/05 04:41:20;;;;;;;2.20;1.90;;;12.00;35.10;;;;;;10416547;28;20263;-79
2023/10/05 04:46:25;;;;;;;4.40;2.00;;;12.00;35.10;;;;;;10432955;28;20236;-79
2023/10/05 04:51:30;;;;;;;2.00;1.80;;;11.90;35.40;;;;;;10421558;28;20225;-79
2023/10/05 04:56:40;;;;;;;3.40;2.10;;;11.90;35.10;;;;;;10428072;28;20679;-79
2023/10/05 05:02:11;;;;;;;2.50;2.07;;;11.90;35.30;;;;;;10421206;28;20228;-79
2023/10/05 05:07:16;;;;;;;2.80;2.10;;;11.80;35.50;;;;;;10425382;28;20264;-79
2023/10/05 05:12:24;;;;;;;3.07;2.20;;;11.80;35.50;;;;;;10425648;28;20225;-79
2023/10/05 05:17:28;;;;;;;1.90;1.70;;;11.70;35.40;;;;;;10426498;28;20229;-77
2023/10/05 05:22:38;;;;;;;2.90;1.70;;;11.70;35.70;;;;;;10428128;28;20648;-79
2023/10/05 05:27:41;;;;;;;1.90;1.80;;;11.70;36.00;;;;;;10425354;28;20268;-77
2023/10/05 05:32:46;;;;;;;6.87;1.77;;;11.70;36.20;;;;;;10415329;28;20217;-76
2023/10/05 05:37:49;;;;;;;2.87;2.30;;;11.70;36.30;;;;;;10425369;28;20245;-81
2023/10/05 05:42:54;;;;;;;3.27;2.43;;;11.80;36.00;;;;;;10430421;28;20274;-80
2023/10/05 05:48:00;;;;;;;2.30;2.10;;;11.80;35.80;;;;;;10425573;28;20447;-80
2023/10/05 05:53:05;;;;;;;3.83;1.90;;;11.70;36.20;;;;;;10423328;28;20312;-80
2023/10/05 05:58:14;;;;;;;3.20;1.87;;;11.70;36.00;;;;;;10430729;28;20237;-81
2023/10/05 06:03:23;;;;;;;2.30;2.10;;;11.70;36.00;;;;;;10431297;28;20221;-80
2023/10/05 06:08:28;;;;;;;3.27;2.37;;;11.70;36.70;;;;;;10427575;28;20287;-81
2023/10/05 06:13:32;;;;;;;2.37;2.17;;;11.80;36.40;;;;;;10430838;28;20227;-81
2023/10/05 06:18:37;;;;;;;2.90;2.47;;;11.70;36.40;;;;;;10431224;28;20230;-80
2023/10/05 06:23:40;;;;;;;2.90;2.47;;;11.70;36.90;;;;;;10431808;28;20228;-76
2023/10/05 06:28:44;;;;;;;2.90;2.60;;;11.60;36.70;;;;;;10425999;28;20608;-76
2023/10/05 06:33:49;;;;;;;3.10;2.57;;;11.60;36.70;;;;;;10428612;28;20290;-77
2023/10/05 06:38:56;;;;;;;3.13;2.60;;;11.50;37.60;;;;;;10425057;28;20220;-80
2023/10/05 06:44:01;;;;;;;4.00;2.80;;;11.50;37.30;;;;;;10431517;28;20307;-80
2023/10/05 06:49:05;;;;;;;3.43;2.30;;;11.50;37.60;;;;;;10431389;28;20225;-80
2023/10/05 06:54:09;;;;;;;4.47;2.67;;;11.60;38.20;;;;;;10429326;28;20221;-80
2023/10/05 06:59:12;;;;;;;3.60;2.60;;;11.60;37.80;;;;;;10431954;28;20231;-80
2023/10/05 07:04:24;;;;;;;3.23;2.50;;;11.60;37.80;;;;;;10428952;28;20246;-76
2023/10/05 07:09:28;;;;;;;2.63;2.23;;;11.60;38.30;;;;;;10428799;28;20237;-75
2023/10/05 07:14:31;;;;;;;4.17;2.83;;;11.70;38.10;;;;;;10431602;28;20228;-75
2023/10/05 07:19:36;;;;;;;3.97;2.90;;;11.80;38.50;;;;;;10426658;28;20238;-76
2023/10/05 07:24:41;;;;;;;2.70;2.50;;;11.90;39.30;;;;;;10430212;28;20232;-75
2023/10/05 07:29:45;;;;;;;3.63;2.60;;;12.00;39.00;;;;;;10431173;28;20225;-76
2023/10/05 07:34:50;;;;;;;3.00;2.80;;;12.10;39.50;;;;;;10424871;28;20228;-76
2023/10/05 07:39:55;;;;;;;4.00;3.10;;;12.40;40.20;;;;;;10429145;28;20233;-73
2023/10/05 07:44:59;;;;;;;3.43;3.13;;;12.60;40.10;;;;;;10430211;28;20737;-75
2023/10/05 07:50:04;;;;;;;3.17;2.57;;;12.90;40.20;;;;;;10425598;28;20412;-76
2023/10/05 07:55:09;;;;;;;3.80;2.80;;;13.20;40.90;;;;;;10421819;28;20267;-75
2023/10/05 08:00:14;;;;;;;5.03;3.20;;;13.50;40.70;;;;;;10423311;28;20235;-75
2023/10/05 08:05:18;;;;;;;3.97;3.23;;;13.80;40.50;;;;;;10431917;28;20643;-74
2023/10/05 08:10:23;;;;;;;4.37;3.33;;;14.00;41.40;;;;;;10427450;28;20247;-75
2023/10/05 08:15:26;;;;;;;5.07;3.83;;;14.20;40.30;;;;;;10424652;28;20303;-75
2023/10/05 08:20:31;;;;;;;4.10;3.60;;;14.30;40.20;;;;;;10421299;28;20225;-75
2023/10/05 08:25:34;;;;;;;4.63;3.47;;;14.50;40.60;;;;;;10424347;28;20225;-77
2023/10/05 08:30:45;;;;;;;4.60;3.50;;;14.80;40.30;;;;;;10425966;28;20239;-79
2023/10/05 08:35:51;;;;;;;5.80;4.33;;;14.90;40.10;;;;;;10423992;28;20240;-80
2023/10/05 08:40:55;;;;;;;4.63;3.87;;;15.10;40.50;;;;;;10424107;28;20244;-79
2023/10/05 08:46:05;;;;;;;4.47;3.87;;;15.30;40.10;;;;;;10417032;28;20225;-75
2023/10/05 08:51:12;;;;;;;4.43;3.77;;;15.50;40.00;;;;;;10418413;28;21057;-75
2023/10/05 08:56:16;;;;;;;5.93;4.07;;;15.60;40.30;;;;;;10421026;28;20291;-75
2023/10/05 09:01:23;;;;;;;4.80;3.50;;;15.80;40.00;;;;;;10420596;28;20221;-74
2023/10/05 09:06:30;;;;;;;4.33;3.50;;;15.90;40.40;;;;;;10426079;28;20308;-75
2023/10/05 09:11:34;;;;;;;5.13;3.63;;;16.00;40.30;;;;;;10417655;28;20607;-75
2023/10/05 09:16:42;;;;;;;5.30;4.10;;;16.20;40.30;;;;;;10418023;28;20499;-75
2023/10/05 09:21:55;;;;;;;4.33;3.17;;;16.50;40.30;;;;;;10415627;28;20228;-74
2023/10/05 09:27:09;;;;;;;3.67;3.37;;;16.80;40.60;;;;;;10416847;28;20294;-75
2023/10/05 09:32:23;;;;;;;4.33;3.27;;;17.10;40.10;;;;;;10420363;28;20222;-74
2023/10/05 09:37:29;;;;;;;4.17;2.73;;;17.20;40.30;;;;;;10428676;28;20229;-74
2023/10/05 09:42:39;;;;;;;3.07;2.77;;;17.40;39.70;;;;;;10430976;28;20232;-74
2023/10/05 09:47:46;;;;;;;4.60;2.87;;;17.70;39.10;;;;;;10430308;28;20233;-75
2023/10/05 09:52:52;;;;;;;4.27;2.37;;;17.90;38.60;;;;;;10427033;28;20738;-74
2023/10/05 09:57:57;;;;;;;3.53;2.30;;;18.00;38.20;;;;;;10429232;28;20233;-75
2023/10/05 10:03:02;;;;;;;3.33;2.40;;;18.20;38.10;;;;;;10430248;28;20236;-75
2023/10/05 10:08:12;;;;;;;4.53;2.53;;;18.30;38.00;;;;;;10421972;28;20237;-74
2023/10/05 10:13:16;;;;;;;2.73;2.10;;;18.40;36.80;;;;;;10426826;28;20234;-74
2023/10/05 10:18:30;;;;;;;4.27;1.97;;;18.60;37.30;;;;;;10434028;28;20229;-74
2023/10/05 10:23:39;;;;;;;2.33;1.97;;;18.80;36.80;;;;;;10424213;28;20232;-74
2023/10/05 10:28:56;;;;;;;3.07;1.77;;;19.00;35.60;;;;;;10434298;28;20229;-74
2023/10/05 10:34:17;;;;;;;4.20;2.30;;;19.10;35.70;;;;;;10424025;28;20227;-74
2023/10/05 10:39:27;;;;;;;2.80;1.70;;;19.20;35.80;;;;;;10429595;28;20232;-74
2023/10/05 10:44:41;;;;;;;3.67;2.60;;;19.20;35.80;;;;;;10428908;28;20221;-76
2023/10/05 10:50:01;;;;;;;3.13;2.60;;;19.30;35.90;;;;;;10430460;28;20229;-76
2023/10/05 10:55:08;;;;;;;4.37;1.80;;;19.50;35.30;;;;;;10424875;28;20752;-76
2023/10/05 11:05:42;;;;;;;4.73;2.07;;;19.80;35.20;;;;;;10424300;28;20221;-75
2023/10/05 11:10:58;;;;;;;4.23;1.90;;;19.90;34.30;;;;;;10425347;28;20228;-80
2023/10/05 11:16:03;;;;;;;4.33;2.30;;;19.90;34.40;;;;;;10431099;28;20233;-79
2023/10/05 11:21:12;;;;;;;3.33;2.17;;;20.00;34.60;;;;;;10425237;28;20234;-80
2023/10/05 11:26:26;;;;;;;1.87;1.60;;;20.10;34.00;;;;;;10422188;28;20229;-74
2023/10/05 11:31:35;;;;;;;2.30;1.93;;;20.10;33.10;;;;;;10428162;28;20263;-74
2023/10/05 11:36:58;;;;;;;2.17;1.93;;;20.20;33.10;;;;;;10427483;28;20233;-74
2023/10/05 11:42:04;;;;;;;3.60;2.10;;;20.20;33.80;;;;;;10422369;28;20332;-74
2023/10/05 11:47:08;;;;;;;3.13;2.03;;;20.20;33.10;;;;;;10422566;28;20236;-74
2023/10/05 11:52:15;;;;;;;2.90;2.00;;;20.20;33.90;;;;;;10421238;28;20758;-74
2023/10/05 11:57:20;;;;;;;2.67;1.80;;;20.20;33.30;;;;;;10423324;28;20274;-75
2023/10/05 12:02:26;;;;;;;2.47;1.93;;;20.20;33.20;;;;;;10425851;28;20225;-76
2023/10/05 12:07:29;;;;;;;2.83;1.97;;;20.30;33.60;;;;;;10421453;28;20232;-74
2023/10/05 12:12:34;;;;;;;3.23;2.37;;;20.30;33.70;;;;;;10418547;28;20228;-74
2023/10/05 12:17:38;;;;;;;3.20;2.40;;;20.40;33.40;;;;;;10421738;28;20695;-78
2023/10/05 12:22:41;;;;;;;4.00;2.53;;;20.40;34.00;;;;;;10421732;28;20248;-78
2023/10/05 12:27:47;;;;;;;3.43;2.10;;;20.50;33.80;;;;;;10421136;28;20233;-78
2023/10/05 12:32:51;;;;;;;3.47;2.30;;;20.50;32.80;;;;;;10424422;28;20240;-74
2023/10/05 12:37:55;;;;;;;3.53;2.20;;;20.50;33.30;;;;;;10422197;28;20307;-75
2023/10/05 12:43:00;;;;;;;3.60;2.03;;;20.50;33.60;;;;;;10423980;28;20309;-76
2023/10/05 12:48:19;;;;;;;3.13;2.17;;;20.60;33.10;;;;;;10422737;28;20282;-79
2023/10/05 12:53:22;;;;;;;4.13;2.30;;;20.60;33.20;;;;;;10429610;28;20698;-79
2023/10/05 12:58:27;;;;;;;2.23;1.77;;;20.70;33.00;;;;;;10419755;28;20244;-79
2023/10/05 13:03:31;;;;;;;2.73;2.07;;;20.70;32.60;;;;;;10416446;28;20304;-80
2023/10/05 13:08:35;;;;;;;3.43;2.00;;;20.60;33.00;;;;;;10434738;28;20228;-75
2023/10/05 13:13:40;;;;;;;7.43;2.73;;;20.60;33.20;;;;;;10432815;28;20316;-74
2023/10/05 13:18:44;;;;;;;5.40;3.80;;;20.70;32.40;;;;;;10431459;28;20249;-75
2023/10/05 13:23:47;;;;;;;5.83;3.93;;;20.70;31.70;;;;;;10432506;28;20282;-75
2023/10/05 13:28:52;;;;;;;6.83;4.40;;;20.70;31.70;;;;;;10427936;28;20239;-74
2023/10/05 13:33:56;;;;;;;6.77;4.57;;;20.70;30.80;;;;;;10423807;28;20225;-74
2023/10/05 13:39:09;;;;;;;6.43;4.20;;;20.60;31.40;;;;;;10431357;28;20233;-74
2023/10/05 13:44:17;;;;;;;7.07;5.10;;;20.70;31.40;;;;;;10424728;28;20304;-74
2023/10/05 13:49:22;;;;;;;9.53;5.63;;;20.70;30.60;;;;;;10427511;28;20252;-74
2023/10/05 13:54:25;;;;;;;7.73;5.30;;;20.70;30.80;;;;;;10426458;28;20719;-82
2023/10/05 13:59:30;;;;;;;6.53;4.93;;;20.70;30.50;;;;;;10423476;28;20224;-74
2023/10/05 14:04:37;;;;;;;6.53;4.73;;;20.60;30.10;;;;;;10427614;28;20236;-74
2023/10/05 14:09:44;;;;;;;7.77;4.87;;;20.60;30.40;;;;;;10429588;28;20257;-73
2023/10/05 14:14:49;;;;;;;7.77;5.00;;;20.50;30.10;;;;;;10418929;28;20221;-77
2023/10/05 14:19:54;;;;;;;6.03;4.47;;;20.50;30.00;;;;;;10422125;28;20232;-79
2023/10/05 14:24:58;;;;;;;6.53;4.10;;;20.50;30.40;;;;;;10423552;28;20279;-79
2023/10/05 14:30:07;;;;;;;7.87;4.47;;;20.50;30.50;;;;;;10427942;28;20231;-76
2023/10/05 14:35:15;;;;;;;6.33;4.47;;;20.40;29.90;;;;;;10420446;28;20232;-78
2023/10/05 14:40:22;;;;;;;5.33;3.97;;;20.40;30.40;;;;;;10423200;28;20642;-78
2023/10/05 14:45:27;;;;;;;17.07;5.20;;;20.40;30.10;;;;;;10421835;28;20225;-72
2023/10/05 14:50:32;;;;;;;8.13;3.90;;;20.40;29.90;;;;;;10427023;28;20239;-80
2023/10/05 14:55:36;;;;;;;4.83;3.90;;;20.30;31.10;;;;;;10425145;28;20641;-76
2023/10/05 15:00:41;;;;;;;6.73;4.00;;;20.40;30.60;;;;;;10425627;28;20234;-75
2023/10/05 15:05:45;;;;;;;4.93;3.83;;;20.40;30.30;;;;;;10426923;28;20224;-75
2023/10/05 15:10:48;;;;;;;18.13;4.73;;;20.40;30.40;;;;;;10425355;28;20229;-76
2023/10/05 15:15:53;;;;;;;4.50;3.40;;;20.50;30.20;;;;;;10425174;28;20225;-76
2023/10/05 15:20:56;;;;;;;6.17;3.60;;;20.40;30.10;;;;;;10426135;28;20605;-76
2023/10/05 15:26:00;;;;;;;6.33;3.60;;;20.40;30.80;;;;;;10417973;28;20567;-76
2023/10/05 15:31:06;;;;;;;5.87;3.80;;;20.40;30.60;;;;;;10424131;28;20229;-76
2023/10/05 15:36:10;;;;;;;6.70;3.90;;;20.30;30.60;;;;;;10423572;28;20249;-78
2023/10/05 15:41:13;;;;;;;4.97;3.13;;;20.30;30.90;;;;;;10425094;28;20331;-78
2023/10/05 15:46:18;;;;;;;5.93;3.43;;;20.30;31.10;;;;;;10430721;28;20229;-79
2023/10/05 15:51:23;;;;;;;8.80;3.77;;;20.30;30.90;;;;;;10431785;28;20260;-77
2023/10/05 15:56:28;;;;;;;6.67;3.50;;;20.20;31.20;;;;;;10425991;28;20233;-78
2023/10/05 16:01:33;;;;;;;6.43;3.70;;;20.20;31.30;;;;;;10418287;28;20221;-77
2023/10/05 16:06:36;;;;;;;6.07;3.80;;;20.10;31.10;;;;;;10426786;28;20220;-77
2023/10/05 16:11:41;;;;;;;5.10;3.47;;;20.10;31.40;;;;;;10430906;28;20240;-76
2023/10/05 16:16:45;;;;;;;6.20;3.93;;;20.10;31.50;;;;;;10420582;28;20225;-76
2023/10/05 16:21:49;;;;;;;5.43;3.33;;;20.00;31.40;;;;;;10419999;28;20248;-76
2023/10/05 16:26:52;;;;;;;7.00;4.13;;;19.90;31.50;;;;;;10426607;28;20229;-76
2023/10/05 16:31:58;;;;;;;8.77;4.30;;;19.80;31.60;;;;;;10420528;28;20233;-76
2023/10/05 16:37:05;;;;;;;6.23;3.97;;;19.70;31.80;;;;;;10418539;28;20225;-76
2023/10/05 16:42:09;;;;;;;7.10;4.37;;;19.50;31.90;;;;;;10416466;28;20232;-76
2023/10/05 16:47:14;;;;;;;6.03;4.20;;;19.30;32.00;;;;;;10422483;28;20759;-76
2023/10/05 16:52:17;;;;;;;6.33;4.30;;;19.30;32.40;;;;;;10418743;28;20680;-76
2023/10/05 16:57:21;;;;;;;7.43;4.53;;;19.20;32.40;;;;;;10414657;28;20580;-76
2023/10/05 17:02:26;;;;;;;8.20;5.50;;;19.20;32.50;;;;;;10417371;28;20228;-76
2023/10/05 17:07:29;;;;;;;6.17;5.00;;;19.20;32.60;;;;;;10425805;28;20233;-75
2023/10/05 17:12:32;;;;;;;10.07;5.30;;;19.10;32.70;;;;;;10416079;28;20220;-76
2023/10/05 17:17:37;;;;;;;8.13;4.30;;;19.00;32.90;;;;;;10421821;28;21044;-76
2023/10/05 17:22:41;;;;;;;5.43;3.90;;;19.00;33.00;;;;;;10425007;28;20769;-76
2023/10/05 17:27:44;;;;;;;5.43;3.93;;;18.90;32.70;;;;;;10422702;28;20252;-76
2023/10/05 17:32:49;;;;;;;5.70;4.00;;;18.90;32.80;;;;;;10416864;28;20308;-76
2023/10/05 17:37:55;;;;;;;6.13;3.80;;;18.80;32.60;;;;;;10426405;28;20236;-76
2023/10/05 17:42:59;;;;;;;6.10;4.03;;;18.80;33.20;;;;;;10420138;28;20237;-76
2023/10/05 17:48:04;;;;;;;8.53;4.17;;;18.70;32.30;;;;;;10426271;28;20228;-75
2023/10/05 17:53:07;;;;;;;6.70;4.33;;;18.70;32.80;;;;;;10427889;28;20225;-76
2023/10/05 17:58:12;;;;;;;6.50;4.23;;;18.60;32.70;;;;;;10432043;28;20328;-76
2023/10/05 18:03:20;;;;;;;6.67;4.17;;;18.50;32.80;;;;;;10428444;28;20221;-77
2023/10/05 18:08:24;;;;;;;5.57;3.97;;;18.50;33.30;;;;;;10430928;28;20244;-76
2023/10/05 18:13:29;;;;;;;5.93;4.13;;;18.50;33.10;;;;;;10427095;28;20815;-77
2023/10/05 18:18:33;;;;;;;8.70;5.03;;;18.50;33.50;;;;;;10430711;28;20225;-77
2023/10/05 18:23:37;;;;;;;6.63;4.33;;;18.40;33.50;;;;;;10434225;28;20279;-77
2023/10/05 18:28:41;;;;;;;6.63;4.20;;;18.40;33.50;;;;;;10436396;28;20312;-77
2023/10/05 18:33:46;;;;;;;6.13;4.37;;;18.40;33.70;;;;;;10434452;28;20612;-76
2023/10/05 18:38:50;;;;;;;7.30;4.20;;;18.50;34.00;;;;;;10437679;28;20233;-76
2023/10/05 18:43:55;;;;;;;8.07;5.20;;;18.50;33.60;;;;;;10431953;28;20308;-76
2023/10/05 18:49:00;;;;;;;8.13;4.70;;;18.50;34.70;;;;;;10430842;28;20245;-76
2023/10/05 18:54:03;;;;;;;6.73;4.47;;;18.50;34.00;;;;;;10437421;28;20261;-76
2023/10/05 18:59:06;;;;;;;7.30;4.47;;;18.50;33.30;;;;;;10424046;28;20987;-77
2023/10/05 19:04:11;;;;;;;8.13;4.57;;;18.40;33.40;;;;;;10427180;28;20232;-76
2023/10/05 19:09:19;;;;;;;6.67;4.27;;;18.40;33.70;;;;;;10433481;28;20236;-77
2023/10/05 19:14:23;;;;;;;7.27;4.23;;;18.40;33.70;;;;;;10434888;28;20237;-77
2023/10/05 19:19:28;;;;;;;6.97;4.37;;;18.30;33.70;;;;;;10422992;28;20324;-77
2023/10/05 19:24:31;;;;;;;6.53;4.20;;;18.20;33.90;;;;;;10430471;28;20950;-77
2023/10/05 19:29:35;;;;;;;6.70;4.40;;;18.20;33.90;;;;;;10428472;28;21004;-77
2023/10/05 19:34:40;;;;;;;5.93;4.23;;;18.10;33.90;;;;;;10421005;28;20320;-77
2023/10/05 19:39:43;;;;;;;7.27;4.77;;;18.10;34.10;;;;;;10428842;28;20319;-77
2023/10/05 19:44:46;;;;;;;5.87;4.23;;;18.00;33.90;;;;;;10427988;28;20977;-77
2023/10/05 19:49:52;;;;;;;6.00;3.93;;;17.90;33.80;;;;;;10426243;28;20715;-77
2023/10/05 19:54:56;;;;;;;5.87;4.20;;;17.80;34.10;;;;;;10432379;28;20233;-77
2023/10/05 20:00:10;;;;;;;5.20;3.80;;;17.70;34.90;;;;;;10424996;28;20236;-77
2023/10/05 20:05:15;;;;;;;6.23;4.47;;;17.70;34.50;;;;;;10426870;28;20734;-77
2023/10/05 20:10:19;;;;;;;7.20;4.43;;;17.50;34.30;;;;;;10427019;28;20220;-77
2023/10/05 20:15:22;;;;;;;6.83;4.70;;;17.50;34.30;;;;;;10422982;28;20246;-77
2023/10/05 20:20:29;;;;;;;5.80;3.90;;;17.50;34.30;;;;;;10419758;28;20237;-77
2023/10/05 20:25:33;;;;;;;8.30;4.53;;;17.40;34.20;;;;;;10426404;28;20232;-77
2023/10/05 20:30:38;;;;;;;5.43;4.33;;;17.40;34.20;;;;;;10431039;28;20237;-77
2023/10/05 20:35:42;;;;;;;7.27;4.50;;;17.30;34.10;;;;;;10424122;28;20308;-77
2023/10/05 20:40:46;;;;;;;6.50;4.10;;;17.20;34.00;;;;;;10415825;28;20253;-77
2023/10/05 20:45:50;;;;;;;5.03;4.03;;;17.00;33.90;;;;;;10421933;28;20236;-77
2023/10/05 20:50:54;;;;;;;7.30;4.50;;;16.80;33.70;;;;;;10423362;28;20228;-77
2023/10/05 20:55:58;;;;;;;6.83;4.53;;;16.60;33.50;;;;;;10428987;28;20217;-78
2023/10/05 21:01:01;;;;;;;5.60;4.23;;;16.40;33.30;;;;;;10434754;28;21028;-77
2023/10/05 21:06:07;;;;;;;5.93;4.00;;;16.20;33.70;;;;;;10430510;28;20225;-77
2023/10/05 21:11:13;;;;;;;8.27;4.73;;;16.00;34.40;;;;;;10427820;28;20307;-77
2023/10/05 21:16:17;;;;;;;6.27;3.90;;;15.80;34.60;;;;;;10424193;28;20307;-78
2023/10/05 21:21:21;;;;;;;5.90;4.23;;;15.60;34.10;;;;;;10427545;28;20229;-78
2023/10/05 21:26:24;;;;;;;6.60;4.47;;;15.50;34.70;;;;;;10430433;28;20335;-78
2023/10/05 21:31:28;;;;;;;7.73;4.70;;;15.50;34.60;;;;;;10436510;28;20237;-78
2023/10/05 21:36:32;;;;;;;9.20;5.33;;;15.40;34.50;;;;;;10433141;28;20233;-78
2023/10/05 21:41:36;;;;;;;5.33;3.87;;;15.40;34.50;;;;;;10429576;28;20229;-78
2023/10/05 21:46:39;;;;;;;7.00;4.90;;;15.20;34.20;;;;;;10429876;28;20391;-77
2023/10/05 21:51:43;;;;;;;8.60;4.27;;;15.10;34.70;;;;;;10436091;28;20601;-77
2023/10/05 21:56:47;;;;;;;6.13;4.50;;;15.00;35.00;;;;;;10427591;28;20240;-78
2023/10/05 22:01:50;;;;;;;6.97;5.00;;;15.00;35.00;;;;;;10425361;28;20730;-78
2023/10/05 22:06:54;;;;;;;5.93;4.47;;;15.00;35.00;;;;;;10431757;28;20233;-78
2023/10/05 22:11:58;;;;;;;6.43;4.63;;;14.90;35.30;;;;;;10432356;28;21014;-78
2023/10/05 22:17:01;;;;;;;7.30;4.60;;;14.90;35.00;;;;;;10434629;28;20246;-78
2023/10/05 22:22:07;;;;;;;5.83;4.27;;;14.90;34.70;;;;;;10433364;28;20224;-78
2023/10/05 22:27:10;;;;;;;5.83;4.20;;;14.90;35.10;;;;;;10431989;28;20789;-78
2023/10/05 22:32:14;;;;;;;5.97;4.70;;;14.80;34.90;;;;;;10431575;28;20258;-78
2023/10/05 22:37:18;;;;;;;5.63;4.00;;;14.80;35.00;;;;;;10436348;28;20247;-78
2023/10/05 22:42:22;;;;;;;5.57;4.23;;;14.70;35.20;;;;;;10432011;28;20232;-78
2023/10/05 22:47:25;;;;;;;6.67;4.27;;;14.60;35.10;;;;;;10429206;28;20229;-78
2023/10/05 22:52:31;;;;;;;8.30;4.43;;;14.60;35.20;;;;;;10431604;28;20593;-78
2023/10/05 22:57:34;;;;;;;6.57;4.27;;;14.60;35.50;;;;;;10428659;28;20235;-78
2023/10/05 23:02:37;;;;;;;5.90;4.50;;;14.60;35.10;;;;;;10436710;28;20220;-78
2023/10/05 23:07:43;;;;;;;9.83;4.43;;;14.50;35.10;;;;;;10434055;28;20678;-78
2023/10/05 23:12:47;;;;;;;6.07;4.20;;;14.50;35.20;;;;;;10425097;28;20260;-78
2023/10/05 23:17:50;;;;;;;5.40;3.67;;;14.40;35.00;;;;;;10432151;28;20252;-78
2023/10/05 23:22:55;;;;;;;5.57;4.17;;;14.40;34.90;;;;;;10438722;28;20271;-78
2023/10/05 23:27:58;;;;;;;5.80;4.00;;;14.20;35.20;;;;;;10433539;28;20233;-78
2023/10/05 23:33:01;;;;;;;5.67;4.23;;;14.10;35.10;;;;;;10435284;28;20255;-78
2023/10/05 23:38:11;;;;;;;6.10;4.20;;;14.00;35.30;;;;;;10433617;28;20282;-78
2023/10/05 23:43:16;;;;;;;6.77;4.60;;;14.00;35.50;;;;;;10431170;28;20764;-78
2023/10/05 23:48:22;;;;;;;6.63;4.60;;;13.90;35.20;;;;;;10430755;28;20228;-78
2023/10/05 23:53:27;;;;;;;5.87;4.23;;;13.80;35.10;;;;;;10432752;28;20308;-78
2023/10/05 23:58:31;;;;;;;6.60;3.97;;;13.70;35.70;;;;;;10434540;28;20229;-78
